sensor_id;sensor_type;location;lat;lon;timestamp;P1;durP1;ratioP1;P2;durP2;ratioP2
20535;SDS011;10426;49.420;8.390;2023-02-04T00:01:08;1.20;;;1.20;;
20535;SDS011;10426;49.420;8.390;2023-02-04T00:03:35;1.15;;;1.15;;
20535;SDS011;10426;49.420;8.390;2023-02-04T00:06:01;1.00;;;1.00;;
20535;SDS011;10426;49.420;8.390;2023-02-04T00:08:28;1.05;;;1.00;;
20535;SDS011;10426;49.420;8.390;2023-02-04T00:10:55;1.30;;;1.20;;
20535;SDS011;10426;49.420;8.390;2023-02-04T00:13:21;1.00;;;1.00;;
20535;SDS011;10426;49.420;8.390;2023-02-04T00:15:49;1.50;;;1.10;;
20535;SDS011;10426;49.420;8.390;2023-02-04T00:18:16;1.50;;;1.08;;
20535;SDS011;10426;49.420;8.390;2023-02-04T00:20:42;1.20;;;1.10;;
20535;SDS011;10426;49.420;8.390;2023-02-04T00:23:09;0.90;;;0.90;;
20535;SDS011;10426;49.420;8.390;2023-02-04T00:25:36;1.00;;;1.00;;
20535;SDS011;10426;49.420;8.390;2023-02-04T00:28:02;1.50;;;1.00;;
20535;SDS011;10426;49.420;8.390;2023-02-04T00:30:30;1.52;;;0.90;;
20535;SDS011;10426;49.420;8.390;2023-02-04T00:32:58;1.10;;;1.00;;
20535;SDS011;10426;49.420;8.390;2023-02-04T00:35:25;1.05;;;0.90;;
20535;SDS011;10426;49.420;8.390;2023-02-04T00:37:51;1.80;;;1.10;;
20535;SDS011;10426;49.420;8.390;2023-02-04T00:40:18;1.25;;;1.00;;
20535;SDS011;10426;49.420;8.390;2023-02-04T00:42:45;1.38;;;1.20;;
20535;SDS011;10426;49.420;8.390;2023-02-04T00:45:11;1.13;;;1.10;;
20535;SDS011;10426;49.420;8.390;2023-02-04T00:47:38;1.42;;;1.20;;
20535;SDS011;10426;49.420;8.390;2023-02-04T00:50:06;1.30;;;1.20;;
20535;SDS011;10426;49.420;8.390;2023-02-04T00:52:33;1.23;;;1.15;;
20535;SDS011;10426;49.420;8.390;2023-02-04T00:54:59;1.20;;;1.10;;
20535;SDS011;10426;49.420;8.390;2023-02-04T00:57:26;1.02;;;0.93;;
20535;SDS011;10426;49.420;8.390;2023-02-04T00:59:53;1.00;;;1.00;;
20535;SDS011;10426;49.420;8.390;2023-02-04T01:02:19;1.73;;;1.20;;
20535;SDS011;10426;49.420;8.390;2023-02-04T01:04:46;2.07;;;1.20;;
20535;SDS011;10426;49.420;8.390;2023-02-04T01:07:14;1.13;;;1.10;;
20535;SDS011;10426;49.420;8.390;2023-02-04T01:09:40;2.40;;;1.17;;
20535;SDS011;10426;49.420;8.390;2023-02-04T01:12:07;2.35;;;1.13;;
20535;SDS011;10426;49.420;8.390;2023-02-04T01:14:33;1.20;;;0.98;;
20535;SDS011;10426;49.420;8.390;2023-02-04T01:17:00;2.03;;;1.10;;
20535;SDS011;10426;49.420;8.390;2023-02-04T01:19:27;1.17;;;1.08;;
20535;SDS011;10426;49.420;8.390;2023-02-04T01:21:53;2.30;;;1.20;;
20535;SDS011;10426;49.420;8.390;2023-02-04T01:24:21;1.63;;;1.05;;
20535;SDS011;10426;49.420;8.390;2023-02-04T01:26:48;1.40;;;1.00;;
20535;SDS011;10426;49.420;8.390;2023-02-04T01:29:14;1.80;;;1.08;;
20535;SDS011;10426;49.420;8.390;2023-02-04T01:31:41;1.27;;;1.00;;
20535;SDS011;10426;49.420;8.390;2023-02-04T01:34:08;3.08;;;1.30;;
20535;SDS011;10426;49.420;8.390;2023-02-04T01:36:34;2.40;;;1.20;;
20535;SDS011;10426;49.420;8.390;2023-02-04T01:39:01;2.47;;;1.08;;
20535;SDS011;10426;49.420;8.390;2023-02-04T01:41:29;2.03;;;1.20;;
20535;SDS011;10426;49.420;8.390;2023-02-04T01:43:55;2.65;;;1.00;;
20535;SDS011;10426;49.420;8.390;2023-02-04T01:46:23;2.05;;;1.10;;
20535;SDS011;10426;49.420;8.390;2023-02-04T01:48:49;3.97;;;1.27;;
20535;SDS011;10426;49.420;8.390;2023-02-04T01:51:18;2.97;;;1.42;;
20535;SDS011;10426;49.420;8.390;2023-02-04T01:53:51;2.17;;;1.20;;
20535;SDS011;10426;49.420;8.390;2023-02-04T01:56:18;2.72;;;1.25;;
20535;SDS011;10426;49.420;8.390;2023-02-04T01:58:46;3.33;;;1.37;;
20535;SDS011;10426;49.420;8.390;2023-02-04T02:01:14;4.32;;;1.40;;
20535;SDS011;10426;49.420;8.390;2023-02-04T02:03:41;1.97;;;1.30;;
20535;SDS011;10426;49.420;8.390;2023-02-04T02:06:08;3.83;;;1.50;;
20535;SDS011;10426;49.420;8.390;2023-02-04T02:08:35;1.67;;;1.13;;
20535;SDS011;10426;49.420;8.390;2023-02-04T02:11:03;4.13;;;1.45;;
20535;SDS011;10426;49.420;8.390;2023-02-04T02:13:29;3.42;;;1.48;;
20535;SDS011;10426;49.420;8.390;2023-02-04T02:15:57;3.17;;;1.40;;
20535;SDS011;10426;49.420;8.390;2023-02-04T02:18:24;3.72;;;1.40;;
20535;SDS011;10426;49.420;8.390;2023-02-04T02:20:50;6.38;;;1.83;;
20535;SDS011;10426;49.420;8.390;2023-02-04T02:23:18;3.95;;;1.63;;
20535;SDS011;10426;49.420;8.390;2023-02-04T02:25:47;3.28;;;1.50;;
20535;SDS011;10426;49.420;8.390;2023-02-04T02:28:15;4.97;;;1.60;;
20535;SDS011;10426;49.420;8.390;2023-02-04T02:30:42;10.40;;;1.90;;
20535;SDS011;10426;49.420;8.390;2023-02-04T02:33:09;5.13;;;2.10;;
20535;SDS011;10426;49.420;8.390;2023-02-04T02:35:36;9.73;;;2.60;;
20535;SDS011;10426;49.420;8.390;2023-02-04T02:38:03;9.38;;;3.00;;
20535;SDS011;10426;49.420;8.390;2023-02-04T02:40:29;6.75;;;2.47;;
20535;SDS011;10426;49.420;8.390;2023-02-04T02:42:57;9.55;;;2.70;;
20535;SDS011;10426;49.420;8.390;2023-02-04T02:45:25;10.48;;;2.60;;
20535;SDS011;10426;49.420;8.390;2023-02-04T02:47:52;9.80;;;3.10;;
20535;SDS011;10426;49.420;8.390;2023-02-04T02:50:20;12.13;;;2.80;;
20535;SDS011;10426;49.420;8.390;2023-02-04T02:52:48;9.15;;;2.80;;
20535;SDS011;10426;49.420;8.390;2023-02-04T02:55:15;7.80;;;2.60;;
20535;SDS011;10426;49.420;8.390;2023-02-04T02:57:43;8.77;;;2.88;;
20535;SDS011;10426;49.420;8.390;2023-02-04T03:00:15;9.77;;;2.63;;
20535;SDS011;10426;49.420;8.390;2023-02-04T03:02:42;8.90;;;2.80;;
20535;SDS011;10426;49.420;8.390;2023-02-04T03:05:09;7.43;;;2.42;;
20535;SDS011;10426;49.420;8.390;2023-02-04T03:07:35;9.20;;;2.70;;
20535;SDS011;10426;49.420;8.390;2023-02-04T03:10:02;8.10;;;2.42;;
20535;SDS011;10426;49.420;8.390;2023-02-04T03:12:29;8.95;;;3.03;;
20535;SDS011;10426;49.420;8.390;2023-02-04T03:14:56;8.95;;;2.60;;
20535;SDS011;10426;49.420;8.390;2023-02-04T03:17:24;11.25;;;2.88;;
20535;SDS011;10426;49.420;8.390;2023-02-04T03:19:50;9.23;;;2.75;;
20535;SDS011;10426;49.420;8.390;2023-02-04T03:22:17;7.35;;;2.50;;
20535;SDS011;10426;49.420;8.390;2023-02-04T03:24:44;9.00;;;2.60;;
20535;SDS011;10426;49.420;8.390;2023-02-04T03:27:10;7.22;;;2.50;;
20535;SDS011;10426;49.420;8.390;2023-02-04T03:29:40;8.77;;;2.55;;
20535;SDS011;10426;49.420;8.390;2023-02-04T03:32:07;10.73;;;3.10;;
20535;SDS011;10426;49.420;8.390;2023-02-04T03:34:35;8.77;;;2.80;;
20535;SDS011;10426;49.420;8.390;2023-02-04T03:37:02;9.53;;;2.83;;
20535;SDS011;10426;49.420;8.390;2023-02-04T03:39:29;7.68;;;2.35;;
20535;SDS011;10426;49.420;8.390;2023-02-04T03:41:55;8.00;;;2.50;;
20535;SDS011;10426;49.420;8.390;2023-02-04T03:44:23;6.47;;;2.45;;
20535;SDS011;10426;49.420;8.390;2023-02-04T03:46:51;6.55;;;2.30;;
20535;SDS011;10426;49.420;8.390;2023-02-04T03:49:19;7.72;;;2.30;;
20535;SDS011;10426;49.420;8.390;2023-02-04T03:51:47;6.97;;;2.27;;
20535;SDS011;10426;49.420;8.390;2023-02-04T03:54:14;8.23;;;2.30;;
20535;SDS011;10426;49.420;8.390;2023-02-04T03:56:40;7.05;;;2.40;;
20535;SDS011;10426;49.420;8.390;2023-02-04T03:59:07;6.35;;;2.30;;
20535;SDS011;10426;49.420;8.390;2023-02-04T04:01:34;7.20;;;2.13;;
20535;SDS011;10426;49.420;8.390;2023-02-04T04:04:00;6.97;;;2.50;;
20535;SDS011;10426;49.420;8.390;2023-02-04T04:06:27;6.10;;;2.20;;
20535;SDS011;10426;49.420;8.390;2023-02-04T04:08:55;8.30;;;2.10;;
20535;SDS011;10426;49.420;8.390;2023-02-04T04:11:21;5.22;;;2.13;;
20535;SDS011;10426;49.420;8.390;2023-02-04T04:13:48;5.80;;;2.40;;
20535;SDS011;10426;49.420;8.390;2023-02-04T04:16:14;4.53;;;2.03;;
20535;SDS011;10426;49.420;8.390;2023-02-04T04:18:41;6.57;;;2.13;;
20535;SDS011;10426;49.420;8.390;2023-02-04T04:21:08;5.65;;;2.10;;
20535;SDS011;10426;49.420;8.390;2023-02-04T04:23:34;7.22;;;2.42;;
20535;SDS011;10426;49.420;8.390;2023-02-04T04:26:02;6.40;;;2.20;;
20535;SDS011;10426;49.420;8.390;2023-02-04T04:28:29;7.05;;;2.13;;
20535;SDS011;10426;49.420;8.390;2023-02-04T04:30:55;4.70;;;1.73;;
20535;SDS011;10426;49.420;8.390;2023-02-04T04:33:22;4.53;;;2.00;;
20535;SDS011;10426;49.420;8.390;2023-02-04T04:35:48;5.22;;;1.92;;
20535;SDS011;10426;49.420;8.390;2023-02-04T04:38:15;4.97;;;2.28;;
20535;SDS011;10426;49.420;8.390;2023-02-04T04:40:42;5.45;;;2.25;;
20535;SDS011;10426;49.420;8.390;2023-02-04T04:43:10;5.75;;;2.10;;
20535;SDS011;10426;49.420;8.390;2023-02-04T04:45:36;3.70;;;2.30;;
20535;SDS011;10426;49.420;8.390;2023-02-04T04:48:03;4.60;;;2.30;;
20535;SDS011;10426;49.420;8.390;2023-02-04T04:50:30;5.22;;;2.10;;
20535;SDS011;10426;49.420;8.390;2023-02-04T04:52:56;4.05;;;1.90;;
20535;SDS011;10426;49.420;8.390;2023-02-04T04:55:23;5.22;;;2.00;;
20535;SDS011;10426;49.420;8.390;2023-02-04T04:57:49;5.47;;;1.90;;
20535;SDS011;10426;49.420;8.390;2023-02-04T05:00:18;3.80;;;2.03;;
20535;SDS011;10426;49.420;8.390;2023-02-04T05:02:45;5.00;;;1.70;;
20535;SDS011;10426;49.420;8.390;2023-02-04T05:05:12;4.70;;;1.83;;
20535;SDS011;10426;49.420;8.390;2023-02-04T05:07:39;3.97;;;2.13;;
20535;SDS011;10426;49.420;8.390;2023-02-04T05:10:05;4.05;;;1.95;;
20535;SDS011;10426;49.420;8.390;2023-02-04T05:12:32;5.50;;;2.35;;
20535;SDS011;10426;49.420;8.390;2023-02-04T05:14:58;4.95;;;2.38;;
20535;SDS011;10426;49.420;8.390;2023-02-04T05:17:26;5.70;;;2.10;;
20535;SDS011;10426;49.420;8.390;2023-02-04T05:19:53;3.90;;;1.90;;
20535;SDS011;10426;49.420;8.390;2023-02-04T05:22:20;4.30;;;1.95;;
20535;SDS011;10426;49.420;8.390;2023-02-04T05:24:46;6.60;;;2.10;;
20535;SDS011;10426;49.420;8.390;2023-02-04T05:27:13;9.23;;;2.55;;
20535;SDS011;10426;49.420;8.390;2023-02-04T05:29:39;6.40;;;2.30;;
20535;SDS011;10426;49.420;8.390;2023-02-04T05:32:06;5.00;;;2.03;;
20535;SDS011;10426;49.420;8.390;2023-02-04T05:34:34;6.32;;;2.38;;
20535;SDS011;10426;49.420;8.390;2023-02-04T05:37:00;4.70;;;2.05;;
20535;SDS011;10426;49.420;8.390;2023-02-04T05:39:27;5.65;;;1.90;;
20535;SDS011;10426;49.420;8.390;2023-02-04T05:41:53;5.97;;;2.00;;
20535;SDS011;10426;49.420;8.390;2023-02-04T05:44:20;5.05;;;2.03;;
20535;SDS011;10426;49.420;8.390;2023-02-04T05:46:47;5.57;;;1.90;;
20535;SDS011;10426;49.420;8.390;2023-02-04T05:49:13;4.55;;;2.17;;
20535;SDS011;10426;49.420;8.390;2023-02-04T05:51:41;4.60;;;2.00;;
20535;SDS011;10426;49.420;8.390;2023-02-04T05:54:08;6.47;;;2.30;;
20535;SDS011;10426;49.420;8.390;2023-02-04T05:56:34;6.05;;;2.45;;
20535;SDS011;10426;49.420;8.390;2023-02-04T05:59:01;5.82;;;2.30;;
20535;SDS011;10426;49.420;8.390;2023-02-04T06:01:27;4.45;;;2.30;;
20535;SDS011;10426;49.420;8.390;2023-02-04T06:03:54;5.35;;;2.30;;
20535;SDS011;10426;49.420;8.390;2023-02-04T06:06:21;5.13;;;2.50;;
20535;SDS011;10426;49.420;8.390;2023-02-04T06:08:48;5.03;;;2.20;;
20535;SDS011;10426;49.420;8.390;2023-02-04T06:11:15;4.28;;;2.20;;
20535;SDS011;10426;49.420;8.390;2023-02-04T06:13:42;4.10;;;2.05;;
20535;SDS011;10426;49.420;8.390;2023-02-04T06:16:08;5.07;;;2.40;;
20535;SDS011;10426;49.420;8.390;2023-02-04T06:18:35;5.83;;;2.30;;
20535;SDS011;10426;49.420;8.390;2023-02-04T06:21:01;6.22;;;2.63;;
20535;SDS011;10426;49.420;8.390;2023-02-04T06:23:29;6.93;;;2.75;;
20535;SDS011;10426;49.420;8.390;2023-02-04T06:25:57;7.43;;;2.70;;
20535;SDS011;10426;49.420;8.390;2023-02-04T06:28:23;6.95;;;2.40;;
20535;SDS011;10426;49.420;8.390;2023-02-04T06:30:50;5.80;;;2.60;;
20535;SDS011;10426;49.420;8.390;2023-02-04T06:33:17;6.50;;;2.40;;
20535;SDS011;10426;49.420;8.390;2023-02-04T06:35:43;7.75;;;2.70;;
20535;SDS011;10426;49.420;8.390;2023-02-04T06:38:10;5.78;;;2.60;;
20535;SDS011;10426;49.420;8.390;2023-02-04T06:40:36;6.38;;;2.50;;
20535;SDS011;10426;49.420;8.390;2023-02-04T06:43:05;6.53;;;2.67;;
20535;SDS011;10426;49.420;8.390;2023-02-04T06:45:31;7.68;;;3.13;;
20535;SDS011;10426;49.420;8.390;2023-02-04T06:47:58;8.55;;;3.00;;
20535;SDS011;10426;49.420;8.390;2023-02-04T06:50:24;6.97;;;3.07;;
20535;SDS011;10426;49.420;8.390;2023-02-04T06:52:51;7.40;;;3.25;;
20535;SDS011;10426;49.420;8.390;2023-02-04T06:55:18;8.57;;;3.28;;
20535;SDS011;10426;49.420;8.390;2023-02-04T06:57:44;6.90;;;3.00;;
20535;SDS011;10426;49.420;8.390;2023-02-04T07:00:13;8.20;;;3.22;;
20535;SDS011;10426;49.420;8.390;2023-02-04T07:02:40;7.43;;;3.20;;
20535;SDS011;10426;49.420;8.390;2023-02-04T07:05:07;7.47;;;3.07;;
20535;SDS011;10426;49.420;8.390;2023-02-04T07:07:34;8.70;;;3.08;;
20535;SDS011;10426;49.420;8.390;2023-02-04T07:10:00;6.65;;;2.97;;
20535;SDS011;10426;49.420;8.390;2023-02-04T07:12:27;7.55;;;3.28;;
20535;SDS011;10426;49.420;8.390;2023-02-04T07:14:53;8.05;;;3.33;;
20535;SDS011;10426;49.420;8.390;2023-02-04T07:17:21;9.00;;;3.35;;
20535;SDS011;10426;49.420;8.390;2023-02-04T07:19:48;7.95;;;3.10;;
20535;SDS011;10426;49.420;8.390;2023-02-04T07:22:15;7.53;;;2.92;;
20535;SDS011;10426;49.420;8.390;2023-02-04T07:24:41;7.77;;;3.03;;
20535;SDS011;10426;49.420;8.390;2023-02-04T07:27:08;7.25;;;2.97;;
20535;SDS011;10426;49.420;8.390;2023-02-04T07:29:34;5.95;;;2.60;;
20535;SDS011;10426;49.420;8.390;2023-02-04T07:32:01;10.02;;;2.97;;
20535;SDS011;10426;49.420;8.390;2023-02-04T07:34:29;7.67;;;3.17;;
20535;SDS011;10426;49.420;8.390;2023-02-04T07:36:55;7.72;;;3.10;;
20535;SDS011;10426;49.420;8.390;2023-02-04T07:39:22;7.07;;;3.40;;
20535;SDS011;10426;49.420;8.390;2023-02-04T07:41:49;8.20;;;3.40;;
20535;SDS011;10426;49.420;8.390;2023-02-04T07:44:15;8.23;;;3.53;;
20535;SDS011;10426;49.420;8.390;2023-02-04T07:46:42;9.48;;;3.60;;
20535;SDS011;10426;49.420;8.390;2023-02-04T07:49:08;8.43;;;3.57;;
20535;SDS011;10426;49.420;8.390;2023-02-04T07:51:36;8.13;;;3.40;;
20535;SDS011;10426;49.420;8.390;2023-02-04T07:54:03;8.45;;;3.55;;
20535;SDS011;10426;49.420;8.390;2023-02-04T07:56:29;10.32;;;4.00;;
20535;SDS011;10426;49.420;8.390;2023-02-04T07:58:56;11.02;;;4.25;;
20535;SDS011;10426;49.420;8.390;2023-02-04T08:01:23;8.80;;;4.40;;
20535;SDS011;10426;49.420;8.390;2023-02-04T08:03:50;9.35;;;4.15;;
20535;SDS011;10426;49.420;8.390;2023-02-04T08:06:16;9.13;;;4.35;;
20535;SDS011;10426;49.420;8.390;2023-02-04T08:08:44;11.13;;;4.20;;
20535;SDS011;10426;49.420;8.390;2023-02-04T08:11:11;10.77;;;5.00;;
20535;SDS011;10426;49.420;8.390;2023-02-04T08:13:38;9.10;;;4.40;;
20535;SDS011;10426;49.420;8.390;2023-02-04T08:16:04;10.50;;;4.32;;
20535;SDS011;10426;49.420;8.390;2023-02-04T08:18:31;11.40;;;4.55;;
20535;SDS011;10426;49.420;8.390;2023-02-04T08:20:57;11.90;;;4.45;;
20535;SDS011;10426;49.420;8.390;2023-02-04T08:23:25;10.50;;;3.97;;
20535;SDS011;10426;49.420;8.390;2023-02-04T08:25:53;9.30;;;4.05;;
20535;SDS011;10426;49.420;8.390;2023-02-04T08:28:20;11.60;;;4.10;;
20535;SDS011;10426;49.420;8.390;2023-02-04T08:30:47;10.80;;;5.00;;
20535;SDS011;10426;49.420;8.390;2023-02-04T08:33:13;14.23;;;5.80;;
20535;SDS011;10426;49.420;8.390;2023-02-04T08:35:40;11.53;;;6.47;;
20535;SDS011;10426;49.420;8.390;2023-02-04T08:38:07;12.70;;;6.50;;
20535;SDS011;10426;49.420;8.390;2023-02-04T08:40:33;12.75;;;6.38;;
20535;SDS011;10426;49.420;8.390;2023-02-04T08:43:01;9.63;;;5.68;;
20535;SDS011;10426;49.420;8.390;2023-02-04T08:45:28;10.50;;;5.45;;
20535;SDS011;10426;49.420;8.390;2023-02-04T08:47:54;11.63;;;5.43;;
20535;SDS011;10426;49.420;8.390;2023-02-04T08:50:21;10.18;;;5.57;;
20535;SDS011;10426;49.420;8.390;2023-02-04T08:52:48;10.02;;;5.55;;
20535;SDS011;10426;49.420;8.390;2023-02-04T08:55:14;10.45;;;5.15;;
20535;SDS011;10426;49.420;8.390;2023-02-04T08:57:41;9.82;;;5.35;;
20535;SDS011;10426;49.420;8.390;2023-02-04T09:00:11;10.33;;;4.63;;
20535;SDS011;10426;49.420;8.390;2023-02-04T09:02:38;9.43;;;4.93;;
20535;SDS011;10426;49.420;8.390;2023-02-04T09:05:05;9.57;;;4.80;;
20535;SDS011;10426;49.420;8.390;2023-02-04T09:07:32;11.65;;;4.40;;
20535;SDS011;10426;49.420;8.390;2023-02-04T09:09:58;10.15;;;3.95;;
20535;SDS011;10426;49.420;8.390;2023-02-04T09:12:25;10.93;;;4.57;;
20535;SDS011;10426;49.420;8.390;2023-02-04T09:14:51;10.50;;;4.30;;
20535;SDS011;10426;49.420;8.390;2023-02-04T09:17:19;13.50;;;4.97;;
20535;SDS011;10426;49.420;8.390;2023-02-04T09:19:46;9.37;;;4.40;;
20535;SDS011;10426;49.420;8.390;2023-02-04T09:22:12;12.13;;;4.55;;
20535;SDS011;10426;49.420;8.390;2023-02-04T09:24:39;11.32;;;4.30;;
20535;SDS011;10426;49.420;8.390;2023-02-04T09:27:06;11.60;;;4.25;;
20535;SDS011;10426;49.420;8.390;2023-02-04T09:29:33;10.48;;;4.22;;
20535;SDS011;10426;49.420;8.390;2023-02-04T09:31:59;11.10;;;4.60;;
20535;SDS011;10426;49.420;8.390;2023-02-04T09:34:27;13.05;;;4.57;;
20535;SDS011;10426;49.420;8.390;2023-02-04T09:36:54;13.52;;;4.80;;
20535;SDS011;10426;49.420;8.390;2023-02-04T09:39:20;12.88;;;4.28;;
20535;SDS011;10426;49.420;8.390;2023-02-04T09:41:47;11.45;;;4.22;;
20535;SDS011;10426;49.420;8.390;2023-02-04T09:44:15;13.10;;;4.38;;
20535;SDS011;10426;49.420;8.390;2023-02-04T09:46:43;13.40;;;4.68;;
20535;SDS011;10426;49.420;8.390;2023-02-04T09:49:11;13.80;;;4.90;;
20535;SDS011;10426;49.420;8.390;2023-02-04T09:51:39;13.07;;;4.65;;
20535;SDS011;10426;49.420;8.390;2023-02-04T09:54:11;14.77;;;4.30;;
20535;SDS011;10426;49.420;8.390;2023-02-04T09:56:38;13.95;;;4.35;;
20535;SDS011;10426;49.420;8.390;2023-02-04T09:59:05;15.77;;;5.88;;
20535;SDS011;10426;49.420;8.390;2023-02-04T10:01:35;16.63;;;6.25;;
20535;SDS011;10426;49.420;8.390;2023-02-04T10:04:02;16.00;;;5.40;;
20535;SDS011;10426;49.420;8.390;2023-02-04T10:06:29;14.73;;;4.80;;
20535;SDS011;10426;49.420;8.390;2023-02-04T10:08:56;47.22;;;16.10;;
20535;SDS011;10426;49.420;8.390;2023-02-04T10:11:24;25.60;;;8.77;;
20535;SDS011;10426;49.420;8.390;2023-02-04T10:13:52;15.30;;;4.90;;
20535;SDS011;10426;49.420;8.390;2023-02-04T10:16:20;16.35;;;5.35;;
20535;SDS011;10426;49.420;8.390;2023-02-04T10:18:48;16.85;;;5.57;;
20535;SDS011;10426;49.420;8.390;2023-02-04T10:21:16;16.60;;;5.40;;
20535;SDS011;10426;49.420;8.390;2023-02-04T10:23:44;13.93;;;5.38;;
20535;SDS011;10426;49.420;8.390;2023-02-04T10:26:13;17.98;;;4.68;;
20535;SDS011;10426;49.420;8.390;2023-02-04T10:28:40;14.75;;;4.25;;
20535;SDS011;10426;49.420;8.390;2023-02-04T10:33:48;15.85;;;4.90;;
20535;SDS011;10426;49.420;8.390;2023-02-04T10:36:15;14.63;;;4.60;;
20535;SDS011;10426;49.420;8.390;2023-02-04T10:38:42;13.02;;;4.57;;
20535;SDS011;10426;49.420;8.390;2023-02-04T10:41:12;14.35;;;4.90;;
20535;SDS011;10426;49.420;8.390;2023-02-04T10:43:39;16.67;;;4.65;;
20535;SDS011;10426;49.420;8.390;2023-02-04T10:46:05;16.23;;;4.30;;
20535;SDS011;10426;49.420;8.390;2023-02-04T10:48:38;16.52;;;4.78;;
20535;SDS011;10426;49.420;8.390;2023-02-04T10:51:05;15.77;;;4.70;;
20535;SDS011;10426;49.420;8.390;2023-02-04T10:53:32;16.25;;;5.00;;
20535;SDS011;10426;49.420;8.390;2023-02-04T10:56:19;15.55;;;4.40;;
20535;SDS011;10426;49.420;8.390;2023-02-04T10:58:46;21.10;;;5.18;;
20535;SDS011;10426;49.420;8.390;2023-02-04T11:01:13;19.75;;;5.35;;
20535;SDS011;10426;49.420;8.390;2023-02-04T11:03:41;12.80;;;4.27;;
20535;SDS011;10426;49.420;8.390;2023-02-04T11:06:09;16.08;;;6.65;;
20535;SDS011;10426;49.420;8.390;2023-02-04T11:08:37;14.80;;;5.00;;
20535;SDS011;10426;49.420;8.390;2023-02-04T11:11:05;17.27;;;4.80;;
20535;SDS011;10426;49.420;8.390;2023-02-04T11:13:39;17.33;;;4.53;;
20535;SDS011;10426;49.420;8.390;2023-02-04T11:16:08;13.70;;;3.80;;
20535;SDS011;10426;49.420;8.390;2023-02-04T11:18:42;18.73;;;4.45;;
20535;SDS011;10426;49.420;8.390;2023-02-04T11:21:12;12.95;;;4.50;;
20535;SDS011;10426;49.420;8.390;2023-02-04T11:23:39;14.98;;;4.43;;
20535;SDS011;10426;49.420;8.390;2023-02-04T11:26:07;15.50;;;5.20;;
20535;SDS011;10426;49.420;8.390;2023-02-04T11:28:43;13.20;;;4.15;;
20535;SDS011;10426;49.420;8.390;2023-02-04T11:31:13;13.25;;;4.45;;
20535;SDS011;10426;49.420;8.390;2023-02-04T11:33:41;14.15;;;4.90;;
20535;SDS011;10426;49.420;8.390;2023-02-04T11:36:08;16.75;;;4.45;;
20535;SDS011;10426;49.420;8.390;2023-02-04T11:38:36;12.43;;;4.00;;
20535;SDS011;10426;49.420;8.390;2023-02-04T11:41:03;12.23;;;3.90;;
20535;SDS011;10426;49.420;8.390;2023-02-04T11:43:31;12.68;;;4.03;;
20535;SDS011;10426;49.420;8.390;2023-02-04T11:46:04;14.68;;;4.15;;
20535;SDS011;10426;49.420;8.390;2023-02-04T11:48:31;14.07;;;4.00;;
20535;SDS011;10426;49.420;8.390;2023-02-04T11:50:58;13.52;;;4.28;;
20535;SDS011;10426;49.420;8.390;2023-02-04T11:53:27;14.00;;;4.80;;
20535;SDS011;10426;49.420;8.390;2023-02-04T11:55:54;13.10;;;4.43;;
20535;SDS011;10426;49.420;8.390;2023-02-04T11:58:21;12.27;;;4.07;;
20535;SDS011;10426;49.420;8.390;2023-02-04T12:00:50;13.85;;;4.28;;
20535;SDS011;10426;49.420;8.390;2023-02-04T12:03:22;14.60;;;4.13;;
20535;SDS011;10426;49.420;8.390;2023-02-04T12:05:49;15.43;;;4.30;;
20535;SDS011;10426;49.420;8.390;2023-02-04T12:08:29;13.18;;;4.20;;
20535;SDS011;10426;49.420;8.390;2023-02-04T12:11:03;15.88;;;5.05;;
20535;SDS011;10426;49.420;8.390;2023-02-04T12:13:30;14.52;;;4.78;;
20535;SDS011;10426;49.420;8.390;2023-02-04T12:15:57;13.45;;;4.05;;
20535;SDS011;10426;49.420;8.390;2023-02-04T12:18:26;12.90;;;4.25;;
20535;SDS011;10426;49.420;8.390;2023-02-04T12:20:53;12.73;;;4.03;;
20535;SDS011;10426;49.420;8.390;2023-02-04T12:23:20;12.77;;;4.10;;
20535;SDS011;10426;49.420;8.390;2023-02-04T12:25:46;12.27;;;4.13;;
20535;SDS011;10426;49.420;8.390;2023-02-04T12:28:13;11.15;;;3.80;;
20535;SDS011;10426;49.420;8.390;2023-02-04T12:30:40;14.25;;;4.13;;
20535;SDS011;10426;49.420;8.390;2023-02-04T12:33:06;12.63;;;3.78;;
20535;SDS011;10426;49.420;8.390;2023-02-04T12:35:34;11.10;;;3.65;;
20535;SDS011;10426;49.420;8.390;2023-02-04T12:38:01;12.55;;;3.67;;
20535;SDS011;10426;49.420;8.390;2023-02-04T12:40:28;11.82;;;3.60;;
20535;SDS011;10426;49.420;8.390;2023-02-04T12:42:54;9.73;;;3.60;;
20535;SDS011;10426;49.420;8.390;2023-02-04T12:45:21;13.20;;;4.07;;
20535;SDS011;10426;49.420;8.390;2023-02-04T12:47:48;13.95;;;3.97;;
20535;SDS011;10426;49.420;8.390;2023-02-04T12:50:15;13.30;;;4.17;;
20535;SDS011;10426;49.420;8.390;2023-02-04T12:52:48;10.90;;;3.92;;
20535;SDS011;10426;49.420;8.390;2023-02-04T12:55:15;12.18;;;3.78;;
20535;SDS011;10426;49.420;8.390;2023-02-04T12:57:42;11.23;;;4.05;;
20535;SDS011;10426;49.420;8.390;2023-02-04T13:00:09;37.65;;;21.40;;
20535;SDS011;10426;49.420;8.390;2023-02-04T13:02:36;20.83;;;10.77;;
20535;SDS011;10426;49.420;8.390;2023-02-04T13:05:02;10.80;;;4.43;;
20535;SDS011;10426;49.420;8.390;2023-02-04T13:07:29;11.90;;;3.70;;
20535;SDS011;10426;49.420;8.390;2023-02-04T13:09:57;13.45;;;3.67;;
20535;SDS011;10426;49.420;8.390;2023-02-04T13:12:23;13.50;;;4.00;;
20535;SDS011;10426;49.420;8.390;2023-02-04T13:14:50;11.60;;;4.00;;
20535;SDS011;10426;49.420;8.390;2023-02-04T13:17:17;11.70;;;3.77;;
20535;SDS011;10426;49.420;8.390;2023-02-04T13:19:43;11.35;;;4.05;;
20535;SDS011;10426;49.420;8.390;2023-02-04T13:22:10;11.68;;;3.92;;
20535;SDS011;10426;49.420;8.390;2023-02-04T13:24:36;10.37;;;3.80;;
20535;SDS011;10426;49.420;8.390;2023-02-04T13:27:04;13.95;;;4.40;;
20535;SDS011;10426;49.420;8.390;2023-02-04T13:29:31;14.73;;;4.18;;
20535;SDS011;10426;49.420;8.390;2023-02-04T13:31:58;12.90;;;4.13;;
20535;SDS011;10426;49.420;8.390;2023-02-04T13:34:24;13.48;;;4.22;;
20535;SDS011;10426;49.420;8.390;2023-02-04T13:36:51;14.40;;;4.30;;
20535;SDS011;10426;49.420;8.390;2023-02-04T13:39:18;10.20;;;3.83;;
20535;SDS011;10426;49.420;8.390;2023-02-04T13:41:44;15.27;;;4.30;;
20535;SDS011;10426;49.420;8.390;2023-02-04T13:44:12;13.77;;;4.38;;
20535;SDS011;10426;49.420;8.390;2023-02-04T13:46:41;14.07;;;5.32;;
20535;SDS011;10426;49.420;8.390;2023-02-04T13:49:07;15.57;;;4.57;;
20535;SDS011;10426;49.420;8.390;2023-02-04T13:51:34;12.48;;;4.00;;
20535;SDS011;10426;49.420;8.390;2023-02-04T13:54:01;12.50;;;4.45;;
20535;SDS011;10426;49.420;8.390;2023-02-04T13:56:27;11.43;;;4.30;;
20535;SDS011;10426;49.420;8.390;2023-02-04T13:58:55;11.25;;;4.13;;
20535;SDS011;10426;49.420;8.390;2023-02-04T14:01:23;10.73;;;3.90;;
20535;SDS011;10426;49.420;8.390;2023-02-04T14:03:49;15.68;;;5.68;;
20535;SDS011;10426;49.420;8.390;2023-02-04T14:06:16;14.50;;;5.20;;
20535;SDS011;10426;49.420;8.390;2023-02-04T14:08:44;19.02;;;9.07;;
20535;SDS011;10426;49.420;8.390;2023-02-04T14:11:11;27.65;;;14.77;;
20535;SDS011;10426;49.420;8.390;2023-02-04T14:13:38;11.18;;;4.05;;
20535;SDS011;10426;49.420;8.390;2023-02-04T14:16:04;20.83;;;11.13;;
20535;SDS011;10426;49.420;8.390;2023-02-04T14:18:34;20.10;;;9.20;;
20535;SDS011;10426;49.420;8.390;2023-02-04T14:21:01;11.45;;;4.25;;
20535;SDS011;10426;49.420;8.390;2023-02-04T14:23:28;12.10;;;3.63;;
20535;SDS011;10426;49.420;8.390;2023-02-04T14:25:54;8.77;;;3.13;;
20535;SDS011;10426;49.420;8.390;2023-02-04T14:28:21;10.65;;;3.72;;
20535;SDS011;10426;49.420;8.390;2023-02-04T14:30:47;13.13;;;3.83;;
20535;SDS011;10426;49.420;8.390;2023-02-04T14:33:14;13.35;;;3.67;;
20535;SDS011;10426;49.420;8.390;2023-02-04T14:35:43;11.48;;;3.83;;
20535;SDS011;10426;49.420;8.390;2023-02-04T14:38:10;13.52;;;3.97;;
20535;SDS011;10426;49.420;8.390;2023-02-04T14:40:40;14.38;;;4.18;;
20535;SDS011;10426;49.420;8.390;2023-02-04T14:43:07;11.88;;;3.47;;